createdAt,value
2023-05-24T00:14:02.008Z,8.40
2023-05-24T00:59:59.907Z,8.20
2023-05-24T01:24:15.055Z,7.80
2023-05-24T01:50:32.401Z,8.30
2023-05-24T02:06:53.303Z,8.30
2023-05-24T02:21:56.171Z,6.70
2023-05-24T02:36:58.893Z,7.00
2023-05-24T02:59:24.417Z,6.80
2023-05-24T03:14:54.182Z,5.50
2023-05-24T03:30:01.172Z,4.10
2023-05-24T03:45:06.780Z,3.90
2023-05-24T04:12:09.514Z,4.10
2023-05-24T04:47:44.853Z,5.50
2023-05-24T05:03:15.423Z,4.70
2023-05-24T05:19:28.676Z,5.30
2023-05-24T05:53:47.397Z,6.50
2023-05-24T06:08:50.434Z,4.00
2023-05-24T06:24:05.079Z,3.40
2023-05-24T06:47:57.053Z,2.00
2023-05-24T07:02:59.874Z,1.90
2023-05-24T07:18:02.921Z,2.70
2023-05-24T07:33:05.605Z,1.90
2023-05-24T07:48:08.648Z,1.50
2023-05-24T08:03:13.976Z,2.70
2023-05-24T08:18:16.672Z,3.10
2023-05-24T08:33:19.257Z,3.80
2023-05-24T08:48:51.457Z,3.30
2023-05-24T09:03:55.882Z,4.30
2023-05-24T09:19:55.538Z,3.40
2023-05-24T09:35:29.156Z,5.00
2023-05-24T09:50:32.392Z,3.90
2023-05-24T10:22:52.727Z,5.70
2023-05-24T11:05:50.044Z,6.20
2023-05-24T11:29:27.401Z,6.10
2023-05-24T12:26:35.738Z,5.40
2023-05-24T12:59:19.063Z,4.80
2023-05-24T13:14:36.318Z,5.30
2023-05-24T13:45:29.757Z,5.20
2023-05-24T14:00:47.408Z,5.80
2023-05-24T14:15:50.349Z,6.10
2023-05-24T14:30:53.044Z,6.00
2023-05-24T14:46:10.225Z,6.00
2023-05-24T15:01:13.073Z,5.70
2023-05-24T15:17:06.636Z,5.20
2023-05-24T15:50:07.357Z,5.60
2023-05-24T16:05:10.471Z,4.20
2023-05-24T16:20:13.297Z,5.00
2023-05-24T16:35:30.801Z,4.90
2023-05-24T17:06:07.173Z,4.90
2023-05-24T17:21:10.821Z,4.80
2023-05-24T17:36:13.352Z,4.70
2023-05-24T17:51:19.027Z,4.70
2023-05-24T18:06:37.129Z,4.50
2023-05-24T18:22:22.537Z,4.70
2023-05-24T18:37:26.870Z,5.20
2023-05-24T19:08:24.511Z,5.70
2023-05-24T19:23:28.642Z,5.90
2023-05-24T19:38:31.948Z,6.50
2023-05-24T19:53:34.542Z,6.10
2023-05-24T20:27:51.081Z,5.40
2023-05-24T21:06:39.296Z,5.60
2023-05-24T21:32:08.249Z,5.20
2023-05-24T21:47:11.088Z,5.10
2023-05-24T22:02:13.889Z,5.00
2023-05-24T22:17:17.292Z,5.10
2023-05-24T22:36:39.527Z,5.40
2023-05-24T23:08:35.130Z,5.00
2023-05-24T23:23:54.039Z,5.90
2023-05-24T23:39:29.606Z,5.60
